White Hall, AR (71602)

2:17 PM CST on February 21, 2017 (GMT -0600)
Pine Bluff | | Change Station

Elev 253 ft 34.19 °N, 92.03 °W | Updated 9 seconds ago

Overcast
Overcast
68.5 °F
Feels Like 68.5 °F
N
3.7
Wind Variable Wind from South

Today
High -- | Low -- °F
--% Chance of Precip.
Yesterday
High -- | Low -- °F
Precip. -- in
Pressure 29.82 in
Visibility 10.0 miles
Clouds Few 2800 ft
Scattered Clouds 3400 ft
Mostly Cloudy 4600 ft
Dew Point 59 °F
Humidity 71%
Rainfall 0.20 in
Snow Depth Not available.
6:46 AM 5:57 PM
Waning Crescent, 23% visible
METAR KPBF 211953Z AUTO 23004KT 10SM FEW028 SCT034 BKN046 18/14 A2982 RMK AO2 RAE36 SLP096 P0000 T01780139
Pressure 29.82 in
Visibility 10.0 miles
Clouds Few 2800 ft
Scattered Clouds 3400 ft
Mostly Cloudy 4600 ft
Dew Point 59 °F
Humidity 71%
Rainfall 0.20 in
Snow Depth Not available.
6:46 AM 5:57 PM
Waning Crescent, 23% visible
METAR KPBF 211953Z AUTO 23004KT 10SM FEW028 SCT034 BKN046 18/14 A2982 RMK AO2 RAE36 SLP096 P0000 T01780139

Get Your Daily Forecast Email!

Thanks for signing up!

Be on the lookout for a verification email in your inbox.

You'll start receiving the daily forecast at 8 AM.

×

10-Day Weather Forecast

Almanac

Astronomy

Feb. 21, 2017 Rise Set
Actual Time
Civil Twilight
Nautical Twilight
Astronomical Twilight
Moon
Length of Visible Light
Length of Day
Tomorrow will be .
, % of the Moon is Illuminated

Today's Extremes

State Highs State Lows

Community

WunderPhotos

Upload Photos

1,962,540 photos uploaded!

WunderBlog® & News

Nearby

Air Quality

  Air Quality AQ Index Pollutant
Not available.

Snow Depth

Station Depth Elevation

Earthquake Activity

City Distance Mag. Time & Date
Minimum magnitude displayed is 2.5.

Coastal Water Temperatures

Place Temperature

Stations

Nearby Weather Stations

Station Location Temp. Windchill Dew Point Humidity Wind Precip. Elev Updated Type
                   

Watches & Warnings

There are currently no watches in effect.